sensor_id;sensor_type;location;lat;lon;timestamp;temperature;humidity
19561;DHT22;9927;47.792;10.616;2022-08-21T03:01:02;14.70;99.90
19561;DHT22;9927;47.792;10.616;2022-08-21T03:03:30;14.50;99.90
19561;DHT22;9927;47.792;10.616;2022-08-21T03:05:57;14.40;99.90
19561;DHT22;9927;47.792;10.616;2022-08-21T03:08:24;14.40;99.90
19561;DHT22;9927;47.792;10.616;2022-08-21T03:13:23;14.40;99.90
19561;DHT22;9927;47.792;10.616;2022-08-21T03:15:50;14.40;99.90
19561;DHT22;9927;47.792;10.616;2022-08-21T03:18:18;14.40;99.90
19561;DHT22;9927;47.792;10.616;2022-08-21T03:20:47;14.30;99.90
19561;DHT22;9927;47.792;10.616;2022-08-21T03:23:15;14.30;99.90
19561;DHT22;9927;47.792;10.616;2022-08-21T03:25:46;14.30;99.90
19561;DHT22;9927;47.792;10.616;2022-08-21T03:28:17;14.40;99.90
19561;DHT22;9927;47.792;10.616;2022-08-21T03:30:47;14.40;99.90
19561;DHT22;9927;47.792;10.616;2022-08-21T03:33:15;14.40;99.90
19561;DHT22;9927;47.792;10.616;2022-08-21T03:35:48;14.40;99.90
19561;DHT22;9927;47.792;10.616;2022-08-21T03:38:18;14.40;99.90
19561;DHT22;9927;47.792;10.616;2022-08-21T03:40:52;14.40;99.90
19561;DHT22;9927;47.792;10.616;2022-08-21T03:43:20;14.30;99.90
19561;DHT22;9927;47.792;10.616;2022-08-21T03:45:47;14.30;99.90
19561;DHT22;9927;47.792;10.616;2022-08-21T03:48:15;14.20;99.90
19561;DHT22;9927;47.792;10.616;2022-08-21T03:50:43;14.20;99.90
19561;DHT22;9927;47.792;10.616;2022-08-21T03:53:12;14.10;99.90
19561;DHT22;9927;47.792;10.616;2022-08-21T03:55:48;14.20;99.90
19561;DHT22;9927;47.792;10.616;2022-08-21T03:58:18;14.10;99.90
19561;DHT22;9927;47.792;10.616;2022-08-21T04:00:48;14.20;99.90
19561;DHT22;9927;47.792;10.616;2022-08-21T04:03:16;14.10;99.90
19561;DHT22;9927;47.792;10.616;2022-08-21T04:05:44;14.10;99.90
19561;DHT22;9927;47.792;10.616;2022-08-21T04:08:14;14.10;99.90
19561;DHT22;9927;47.792;10.616;2022-08-21T04:10:43;14.10;99.90
19561;DHT22;9927;47.792;10.616;2022-08-21T04:13:10;14.10;99.90
19561;DHT22;9927;47.792;10.616;2022-08-21T04:15:38;14.10;99.90
19561;DHT22;9927;47.792;10.616;2022-08-21T04:18:05;14.00;99.90
19561;DHT22;9927;47.792;10.616;2022-08-21T04:20:33;14.10;99.90
19561;DHT22;9927;47.792;10.616;2022-08-21T04:23:02;14.10;99.90
19561;DHT22;9927;47.792;10.616;2022-08-21T04:25:29;14.00;99.90
19561;DHT22;9927;47.792;10.616;2022-08-21T04:27:57;13.90;99.90
19561;DHT22;9927;47.792;10.616;2022-08-21T04:30:25;13.80;99.90
19561;DHT22;9927;47.792;10.616;2022-08-21T04:32:56;13.80;99.90
19561;DHT22;9927;47.792;10.616;2022-08-21T04:35:26;13.80;99.90
19561;DHT22;9927;47.792;10.616;2022-08-21T04:37:54;13.80;99.90
19561;DHT22;9927;47.792;10.616;2022-08-21T04:40:25;13.70;99.90
19561;DHT22;9927;47.792;10.616;2022-08-21T04:43:03;13.80;99.90
19561;DHT22;9927;47.792;10.616;2022-08-21T04:45:45;13.80;99.90
19561;DHT22;9927;47.792;10.616;2022-08-21T04:48:18;13.80;99.90
19561;DHT22;9927;47.792;10.616;2022-08-21T04:53:34;13.80;99.90
19561;DHT22;9927;47.792;10.616;2022-08-21T04:56:19;13.70;99.90
19561;DHT22;9927;47.792;10.616;2022-08-21T04:58:48;13.70;99.90
19561;DHT22;9927;47.792;10.616;2022-08-21T05:01:20;13.70;99.90
19561;DHT22;9927;47.792;10.616;2022-08-21T05:03:50;13.70;99.90
19561;DHT22;9927;47.792;10.616;2022-08-21T05:06:19;13.80;99.90
19561;DHT22;9927;47.792;10.616;2022-08-21T05:08:49;13.90;99.90
19561;DHT22;9927;47.792;10.616;2022-08-21T05:11:29;13.90;99.90
19561;DHT22;9927;47.792;10.616;2022-08-21T05:13:57;13.90;99.90
19561;DHT22;9927;47.792;10.616;2022-08-21T05:16:25;14.10;99.90
19561;DHT22;9927;47.792;10.616;2022-08-21T05:19:07;14.20;99.90
19561;DHT22;9927;47.792;10.616;2022-08-21T05:21:37;14.30;99.90
19561;DHT22;9927;47.792;10.616;2022-08-21T05:24:04;14.30;99.90
19561;DHT22;9927;47.792;10.616;2022-08-21T05:26:32;14.50;99.90
19561;DHT22;9927;47.792;10.616;2022-08-21T05:29:11;14.60;99.90
19561;DHT22;9927;47.792;10.616;2022-08-21T05:31:39;15.20;99.90
19561;DHT22;9927;47.792;10.616;2022-08-21T05:34:06;15.90;99.90
19561;DHT22;9927;47.792;10.616;2022-08-21T05:36:33;16.70;99.90
19561;DHT22;9927;47.792;10.616;2022-08-21T05:39:00;17.40;99.90
19561;DHT22;9927;47.792;10.616;2022-08-21T05:41:28;18.00;99.90
19561;DHT22;9927;47.792;10.616;2022-08-21T05:43:56;18.60;99.90
19561;DHT22;9927;47.792;10.616;2022-08-21T05:46:23;19.10;99.90
19561;DHT22;9927;47.792;10.616;2022-08-21T05:48:50;19.70;99.90
19561;DHT22;9927;47.792;10.616;2022-08-21T05:51:17;20.20;99.90
19561;DHT22;9927;47.792;10.616;2022-08-21T05:53:45;20.60;99.90
19561;DHT22;9927;47.792;10.616;2022-08-21T05:56:12;21.00;99.90
19561;DHT22;9927;47.792;10.616;2022-08-21T05:58:40;21.30;99.90
19561;DHT22;9927;47.792;10.616;2022-08-21T06:01:08;21.60;99.90
19561;DHT22;9927;47.792;10.616;2022-08-21T06:03:39;21.80;99.90
19561;DHT22;9927;47.792;10.616;2022-08-21T06:06:07;22.20;99.90
19561;DHT22;9927;47.792;10.616;2022-08-21T06:08:35;22.60;99.90
19561;DHT22;9927;47.792;10.616;2022-08-21T06:11:03;22.80;99.90
19561;DHT22;9927;47.792;10.616;2022-08-21T06:13:31;23.10;99.90
19561;DHT22;9927;47.792;10.616;2022-08-21T06:16:11;23.10;99.90
19561;DHT22;9927;47.792;10.616;2022-08-21T06:18:43;23.30;99.90
19561;DHT22;9927;47.792;10.616;2022-08-21T06:21:11;23.70;99.90
19561;DHT22;9927;47.792;10.616;2022-08-21T06:23:39;23.80;99.90
19561;DHT22;9927;47.792;10.616;2022-08-21T06:26:07;24.00;99.90
19561;DHT22;9927;47.792;10.616;2022-08-21T06:28:36;24.30;99.90
19561;DHT22;9927;47.792;10.616;2022-08-21T06:31:20;24.30;99.90
19561;DHT22;9927;47.792;10.616;2022-08-21T06:33:47;25.00;99.90
19561;DHT22;9927;47.792;10.616;2022-08-21T06:36:15;24.80;99.90
19561;DHT22;9927;47.792;10.616;2022-08-21T06:38:42;25.20;99.90
19561;DHT22;9927;47.792;10.616;2022-08-21T06:41:19;25.90;99.90
19561;DHT22;9927;47.792;10.616;2022-08-21T06:43:53;25.70;99.90
19561;DHT22;9927;47.792;10.616;2022-08-21T06:46:20;26.40;99.90
19561;DHT22;9927;47.792;10.616;2022-08-21T06:48:48;27.20;99.90
19561;DHT22;9927;47.792;10.616;2022-08-21T06:51:16;27.70;99.90
19561;DHT22;9927;47.792;10.616;2022-08-21T06:53:43;28.00;97.10
19561;DHT22;9927;47.792;10.616;2022-08-21T06:56:11;28.10;96.30
19561;DHT22;9927;47.792;10.616;2022-08-21T06:58:38;28.10;95.70
19561;DHT22;9927;47.792;10.616;2022-08-21T07:01:05;27.90;96.50
19561;DHT22;9927;47.792;10.616;2022-08-21T07:03:35;28.10;95.80
19561;DHT22;9927;47.792;10.616;2022-08-21T07:06:04;28.00;95.00
19561;DHT22;9927;47.792;10.616;2022-08-21T07:08:31;28.50;95.20
19561;DHT22;9927;47.792;10.616;2022-08-21T07:11:00;28.50;94.80
19561;DHT22;9927;47.792;10.616;2022-08-21T07:13:29;28.10;95.20
19561;DHT22;9927;47.792;10.616;2022-08-21T07:15:56;28.20;94.30
19561;DHT22;9927;47.792;10.616;2022-08-21T07:18:29;28.50;94.10
19561;DHT22;9927;47.792;10.616;2022-08-21T07:20:57;28.40;94.40
19561;DHT22;9927;47.792;10.616;2022-08-21T07:23:30;28.70;93.70
19561;DHT22;9927;47.792;10.616;2022-08-21T07:25:58;29.00;91.80
19561;DHT22;9927;47.792;10.616;2022-08-21T07:28:30;29.50;92.00
19561;DHT22;9927;47.792;10.616;2022-08-21T07:30:59;29.40;87.80
19561;DHT22;9927;47.792;10.616;2022-08-21T07:33:29;28.80;90.50
19561;DHT22;9927;47.792;10.616;2022-08-21T07:35:57;28.90;91.00
19561;DHT22;9927;47.792;10.616;2022-08-21T07:38:24;29.40;89.90
19561;DHT22;9927;47.792;10.616;2022-08-21T07:40:53;30.00;88.10
19561;DHT22;9927;47.792;10.616;2022-08-21T07:43:22;29.90;85.80
19561;DHT22;9927;47.792;10.616;2022-08-21T07:45:49;29.90;85.00
19561;DHT22;9927;47.792;10.616;2022-08-21T07:48:16;30.20;84.00
19561;DHT22;9927;47.792;10.616;2022-08-21T07:50:44;30.80;81.80
19561;DHT22;9927;47.792;10.616;2022-08-21T07:53:11;30.90;79.80
19561;DHT22;9927;47.792;10.616;2022-08-21T07:55:38;30.50;81.30
19561;DHT22;9927;47.792;10.616;2022-08-21T07:58:05;30.40;79.50
19561;DHT22;9927;47.792;10.616;2022-08-21T08:00:33;30.60;79.30
19561;DHT22;9927;47.792;10.616;2022-08-21T08:03:01;31.20;78.80
19561;DHT22;9927;47.792;10.616;2022-08-21T08:05:30;31.70;71.80
19561;DHT22;9927;47.792;10.616;2022-08-21T08:07:59;31.50;76.20
19561;DHT22;9927;47.792;10.616;2022-08-21T08:10:26;31.50;73.80
19561;DHT22;9927;47.792;10.616;2022-08-21T08:12:54;30.50;76.80
19561;DHT22;9927;47.792;10.616;2022-08-21T08:15:24;30.50;72.80
19561;DHT22;9927;47.792;10.616;2022-08-21T08:17:52;29.80;74.00
19561;DHT22;9927;47.792;10.616;2022-08-21T08:20:22;30.30;76.00
19561;DHT22;9927;47.792;10.616;2022-08-21T08:22:50;31.40;74.00
19561;DHT22;9927;47.792;10.616;2022-08-21T08:25:18;32.10;71.10
19561;DHT22;9927;47.792;10.616;2022-08-21T08:27:46;31.20;71.60
19561;DHT22;9927;47.792;10.616;2022-08-21T08:30:15;30.60;68.40
19561;DHT22;9927;47.792;10.616;2022-08-21T08:32:44;30.60;68.70
19561;DHT22;9927;47.792;10.616;2022-08-21T08:35:12;31.00;68.50
19561;DHT22;9927;47.792;10.616;2022-08-21T08:37:41;31.10;67.80
19561;DHT22;9927;47.792;10.616;2022-08-21T08:40:18;31.70;64.10
19561;DHT22;9927;47.792;10.616;2022-08-21T08:42:47;31.80;63.40
19561;DHT22;9927;47.792;10.616;2022-08-21T08:45:18;32.10;66.20
19561;DHT22;9927;47.792;10.616;2022-08-21T08:47:50;32.10;61.80
19561;DHT22;9927;47.792;10.616;2022-08-21T08:50:22;32.10;63.20
19561;DHT22;9927;47.792;10.616;2022-08-21T08:53:02;32.40;63.90
19561;DHT22;9927;47.792;10.616;2022-08-21T08:55:39;32.10;63.70
19561;DHT22;9927;47.792;10.616;2022-08-21T08:58:10;31.90;64.10
19561;DHT22;9927;47.792;10.616;2022-08-21T09:00:39;32.70;58.40
19561;DHT22;9927;47.792;10.616;2022-08-21T09:03:07;32.30;59.70
19561;DHT22;9927;47.792;10.616;2022-08-21T09:05:46;32.30;60.40
19561;DHT22;9927;47.792;10.616;2022-08-21T09:14:01;30.80;60.40
19561;DHT22;9927;47.792;10.616;2022-08-21T09:25:15;29.20;68.60
19561;DHT22;9927;47.792;10.616;2022-08-21T09:27:45;29.00;67.90
19561;DHT22;9927;47.792;10.616;2022-08-21T09:30:13;28.30;65.70
19561;DHT22;9927;47.792;10.616;2022-08-21T09:32:41;27.80;69.40
19561;DHT22;9927;47.792;10.616;2022-08-21T09:35:12;27.90;71.80
19561;DHT22;9927;47.792;10.616;2022-08-21T09:37:51;27.70;69.80
19561;DHT22;9927;47.792;10.616;2022-08-21T09:43:18;27.50;65.60
19561;DHT22;9927;47.792;10.616;2022-08-21T09:45:47;27.60;66.50
19561;DHT22;9927;47.792;10.616;2022-08-21T09:48:20;27.50;69.10
19561;DHT22;9927;47.792;10.616;2022-08-21T09:50:53;27.30;68.40
19561;DHT22;9927;47.792;10.616;2022-08-21T09:53:26;27.10;70.30
19561;DHT22;9927;47.792;10.616;2022-08-21T09:56:03;27.00;74.50
19561;DHT22;9927;47.792;10.616;2022-08-21T09:58:50;26.80;73.40
19561;DHT22;9927;47.792;10.616;2022-08-21T10:01:23;26.70;73.80
19561;DHT22;9927;47.792;10.616;2022-08-21T10:04:06;26.40;75.10
19561;DHT22;9927;47.792;10.616;2022-08-21T10:06:34;26.10;75.60
19561;DHT22;9927;47.792;10.616;2022-08-21T10:09:05;25.90;76.80
19561;DHT22;9927;47.792;10.616;2022-08-21T10:11:33;26.00;75.20
19561;DHT22;9927;47.792;10.616;2022-08-21T10:14:41;25.70;75.40
19561;DHT22;9927;47.792;10.616;2022-08-21T10:20:01;25.60;78.40
19561;DHT22;9927;47.792;10.616;2022-08-21T10:25:55;25.80;75.40
19561;DHT22;9927;47.792;10.616;2022-08-21T10:32:02;25.90;75.40
19561;DHT22;9927;47.792;10.616;2022-08-21T10:37:59;25.90;72.30
19561;DHT22;9927;47.792;10.616;2022-08-21T10:40:41;25.80;66.80
19561;DHT22;9927;47.792;10.616;2022-08-21T10:48:25;25.60;72.80
19561;DHT22;9927;47.792;10.616;2022-08-21T10:51:04;25.30;71.20
19561;DHT22;9927;47.792;10.616;2022-08-21T10:56:19;25.30;74.50
19561;DHT22;9927;47.792;10.616;2022-08-21T11:04:52;25.20;76.40
19561;DHT22;9927;47.792;10.616;2022-08-21T11:07:46;25.10;75.20
19561;DHT22;9927;47.792;10.616;2022-08-21T11:10:18;24.70;77.80
19561;DHT22;9927;47.792;10.616;2022-08-21T11:13:21;24.60;78.00
19561;DHT22;9927;47.792;10.616;2022-08-21T11:15:56;24.60;77.90
19561;DHT22;9927;47.792;10.616;2022-08-21T11:18:36;24.60;78.20
19561;DHT22;9927;47.792;10.616;2022-08-21T11:24:02;24.40;73.70
19561;DHT22;9927;47.792;10.616;2022-08-21T11:29:24;24.30;75.70
19561;DHT22;9927;47.792;10.616;2022-08-21T11:32:41;24.30;76.30
19561;DHT22;9927;47.792;10.616;2022-08-21T11:40:52;24.50;72.10
19561;DHT22;9927;47.792;10.616;2022-08-21T11:43:35;24.40;74.20
19561;DHT22;9927;47.792;10.616;2022-08-21T11:57:02;24.30;72.30
19561;DHT22;9927;47.792;10.616;2022-08-21T12:02:37;24.40;69.30
19561;DHT22;9927;47.792;10.616;2022-08-21T12:05:21;24.40;71.90
19561;DHT22;9927;47.792;10.616;2022-08-21T12:08:07;24.40;74.00
19561;DHT22;9927;47.792;10.616;2022-08-21T12:10:40;24.50;73.20
19561;DHT22;9927;47.792;10.616;2022-08-21T12:13:29;24.50;70.30
19561;DHT22;9927;47.792;10.616;2022-08-21T12:16:15;24.50;75.30
19561;DHT22;9927;47.792;10.616;2022-08-21T12:18:43;24.50;72.40
19561;DHT22;9927;47.792;10.616;2022-08-21T12:21:33;24.60;76.10
19561;DHT22;9927;47.792;10.616;2022-08-21T12:29:28;24.70;65.20
19561;DHT22;9927;47.792;10.616;2022-08-21T12:34:45;24.70;62.70
19561;DHT22;9927;47.792;10.616;2022-08-21T12:40:02;24.30;63.50
19561;DHT22;9927;47.792;10.616;2022-08-21T12:42:41;24.30;65.00
19561;DHT22;9927;47.792;10.616;2022-08-21T12:45:40;24.30;61.10
19561;DHT22;9927;47.792;10.616;2022-08-21T12:50:54;24.30;61.50
19561;DHT22;9927;47.792;10.616;2022-08-21T12:53:52;24.50;59.10
19561;DHT22;9927;47.792;10.616;2022-08-21T12:56:31;24.50;61.00
19561;DHT22;9927;47.792;10.616;2022-08-21T12:59:07;24.70;60.20
19561;DHT22;9927;47.792;10.616;2022-08-21T13:01:49;24.80;61.70
19561;DHT22;9927;47.792;10.616;2022-08-21T13:04:19;24.80;60.40
19561;DHT22;9927;47.792;10.616;2022-08-21T13:06:50;24.80;63.70
19561;DHT22;9927;47.792;10.616;2022-08-21T13:09:26;24.70;61.50
19561;DHT22;9927;47.792;10.616;2022-08-21T13:11:55;24.80;65.20
19561;DHT22;9927;47.792;10.616;2022-08-21T13:14:30;24.70;58.30
19561;DHT22;9927;47.792;10.616;2022-08-21T13:16:59;24.70;59.30
19561;DHT22;9927;47.792;10.616;2022-08-21T13:19:27;24.60;60.00
19561;DHT22;9927;47.792;10.616;2022-08-21T13:21:56;24.60;65.20
19561;DHT22;9927;47.792;10.616;2022-08-21T13:24:30;24.70;65.70
19561;DHT22;9927;47.792;10.616;2022-08-21T13:27:25;24.70;66.40
19561;DHT22;9927;47.792;10.616;2022-08-21T13:30:17;24.80;66.00
19561;DHT22;9927;47.792;10.616;2022-08-21T13:32:51;24.90;66.40
19561;DHT22;9927;47.792;10.616;2022-08-21T13:35:23;24.90;65.60
19561;DHT22;9927;47.792;10.616;2022-08-21T13:37:53;24.90;66.40
19561;DHT22;9927;47.792;10.616;2022-08-21T13:40:29;25.00;65.10
19561;DHT22;9927;47.792;10.616;2022-08-21T13:42:57;25.00;63.50
19561;DHT22;9927;47.792;10.616;2022-08-21T13:45:29;25.10;63.80
19561;DHT22;9927;47.792;10.616;2022-08-21T13:48:00;25.10;64.00
19561;DHT22;9927;47.792;10.616;2022-08-21T13:50:34;25.20;62.00
19561;DHT22;9927;47.792;10.616;2022-08-21T13:53:04;25.20;62.30
19561;DHT22;9927;47.792;10.616;2022-08-21T13:55:43;25.10;59.90
19561;DHT22;9927;47.792;10.616;2022-08-21T13:58:11;25.20;59.80
19561;DHT22;9927;47.792;10.616;2022-08-21T14:00:47;25.20;59.80
19561;DHT22;9927;47.792;10.616;2022-08-21T14:05:54;25.10;63.90
19561;DHT22;9927;47.792;10.616;2022-08-21T14:08:33;25.20;68.10
19561;DHT22;9927;47.792;10.616;2022-08-21T14:11:04;25.10;62.00
19561;DHT22;9927;47.792;10.616;2022-08-21T14:21:13;25.30;71.90
19561;DHT22;9927;47.792;10.616;2022-08-21T14:23:40;25.40;65.80
19561;DHT22;9927;47.792;10.616;2022-08-21T14:26:08;25.40;67.40
19561;DHT22;9927;47.792;10.616;2022-08-21T14:28:40;25.50;71.40
19561;DHT22;9927;47.792;10.616;2022-08-21T14:31:17;25.60;69.90
19561;DHT22;9927;47.792;10.616;2022-08-21T14:34:00;25.60;63.70
19561;DHT22;9927;47.792;10.616;2022-08-21T14:36:45;25.60;62.80
19561;DHT22;9927;47.792;10.616;2022-08-21T14:39:14;25.70;64.10
19561;DHT22;9927;47.792;10.616;2022-08-21T14:41:41;25.70;65.10
19561;DHT22;9927;47.792;10.616;2022-08-21T14:44:10;25.80;65.40
19561;DHT22;9927;47.792;10.616;2022-08-21T14:46:37;25.80;65.90
19561;DHT22;9927;47.792;10.616;2022-08-21T14:49:23;25.90;69.10
19561;DHT22;9927;47.792;10.616;2022-08-21T14:51:54;25.70;69.00
19561;DHT22;9927;47.792;10.616;2022-08-21T14:54:26;25.40;66.40
19561;DHT22;9927;47.792;10.616;2022-08-21T14:56:59;25.40;67.30
19561;DHT22;9927;47.792;10.616;2022-08-21T14:59:27;25.30;73.70
19561;DHT22;9927;47.792;10.616;2022-08-21T15:01:55;25.20;73.20
19561;DHT22;9927;47.792;10.616;2022-08-21T15:04:23;24.80;73.00
19561;DHT22;9927;47.792;10.616;2022-08-21T15:06:50;24.80;74.20
19561;DHT22;9927;47.792;10.616;2022-08-21T15:09:18;24.60;74.10
19561;DHT22;9927;47.792;10.616;2022-08-21T15:11:45;24.60;76.10
19561;DHT22;9927;47.792;10.616;2022-08-21T15:14:18;24.90;75.90
19561;DHT22;9927;47.792;10.616;2022-08-21T15:16:48;25.00;73.50
19561;DHT22;9927;47.792;10.616;2022-08-21T15:19:15;24.80;74.00
19561;DHT22;9927;47.792;10.616;2022-08-21T15:21:43;24.60;75.30
19561;DHT22;9927;47.792;10.616;2022-08-21T15:24:10;24.50;73.90
19561;DHT22;9927;47.792;10.616;2022-08-21T15:26:37;24.50;74.60
19561;DHT22;9927;47.792;10.616;2022-08-21T15:29:06;24.80;77.00
19561;DHT22;9927;47.792;10.616;2022-08-21T15:31:34;25.00;73.90
19561;DHT22;9927;47.792;10.616;2022-08-21T15:34:02;24.60;74.40
19561;DHT22;9927;47.792;10.616;2022-08-21T15:36:29;24.20;74.10
19561;DHT22;9927;47.792;10.616;2022-08-21T15:38:57;24.10;73.80
19561;DHT22;9927;47.792;10.616;2022-08-21T15:41:24;24.20;75.10
19561;DHT22;9927;47.792;10.616;2022-08-21T15:43:52;24.40;75.20
19561;DHT22;9927;47.792;10.616;2022-08-21T15:46:20;24.60;76.70
19561;DHT22;9927;47.792;10.616;2022-08-21T15:48:48;24.60;74.20
19561;DHT22;9927;47.792;10.616;2022-08-21T15:51:16;24.60;75.40
19561;DHT22;9927;47.792;10.616;2022-08-21T15:53:44;24.30;75.80
19561;DHT22;9927;47.792;10.616;2022-08-21T15:56:23;24.00;73.80
19561;DHT22;9927;47.792;10.616;2022-08-21T15:58:53;23.80;76.00
19561;DHT22;9927;47.792;10.616;2022-08-21T16:01:21;23.70;77.30
19561;DHT22;9927;47.792;10.616;2022-08-21T16:03:50;23.90;73.90
19561;DHT22;9927;47.792;10.616;2022-08-21T16:06:19;24.10;76.30
19561;DHT22;9927;47.792;10.616;2022-08-21T16:09:06;24.20;76.70
19561;DHT22;9927;47.792;10.616;2022-08-21T16:11:34;24.30;71.20
19561;DHT22;9927;47.792;10.616;2022-08-21T16:14:01;24.40;74.50
19561;DHT22;9927;47.792;10.616;2022-08-21T16:16:28;24.40;75.70
19561;DHT22;9927;47.792;10.616;2022-08-21T16:18:57;24.40;75.80
19561;DHT22;9927;47.792;10.616;2022-08-21T16:21:25;24.40;75.40
19561;DHT22;9927;47.792;10.616;2022-08-21T16:23:52;24.40;74.90
19561;DHT22;9927;47.792;10.616;2022-08-21T16:26:20;24.40;75.60
19561;DHT22;9927;47.792;10.616;2022-08-21T16:28:50;24.10;75.30
19561;DHT22;9927;47.792;10.616;2022-08-21T16:31:22;23.90;75.60
19561;DHT22;9927;47.792;10.616;2022-08-21T16:33:53;23.80;77.20
19561;DHT22;9927;47.792;10.616;2022-08-21T16:36:24;23.70;75.30
19561;DHT22;9927;47.792;10.616;2022-08-21T16:38:55;23.60;80.60
19561;DHT22;9927;47.792;10.616;2022-08-21T16:41:25;23.40;82.40
19561;DHT22;9927;47.792;10.616;2022-08-21T16:43:53;23.40;80.60
19561;DHT22;9927;47.792;10.616;2022-08-21T16:46:21;23.40;80.40
19561;DHT22;9927;47.792;10.616;2022-08-21T16:48:49;23.40;81.00
19561;DHT22;9927;47.792;10.616;2022-08-21T16:51:16;23.40;80.90
19561;DHT22;9927;47.792;10.616;2022-08-21T16:53:44;23.30;79.60
19561;DHT22;9927;47.792;10.616;2022-08-21T16:56:13;23.20;81.70
19561;DHT22;9927;47.792;10.616;2022-08-21T16:58:43;23.10;80.70
19561;DHT22;9927;47.792;10.616;2022-08-21T17:01:13;23.00;82.70
19561;DHT22;9927;47.792;10.616;2022-08-21T17:03:44;23.00;83.90
19561;DHT22;9927;47.792;10.616;2022-08-21T17:06:13;22.90;80.90
19561;DHT22;9927;47.792;10.616;2022-08-21T17:08:41;22.80;82.00
19561;DHT22;9927;47.792;10.616;2022-08-21T17:11:24;22.80;82.50
19561;DHT22;9927;47.792;10.616;2022-08-21T17:14:13;22.70;83.20
19561;DHT22;9927;47.792;10.616;2022-08-21T17:16:45;22.70;84.80
19561;DHT22;9927;47.792;10.616;2022-08-21T17:19:13;22.60;85.30
19561;DHT22;9927;47.792;10.616;2022-08-21T17:21:40;22.60;85.20
19561;DHT22;9927;47.792;10.616;2022-08-21T17:24:08;22.40;86.60
19561;DHT22;9927;47.792;10.616;2022-08-21T17:26:36;22.40;84.80
19561;DHT22;9927;47.792;10.616;2022-08-21T17:29:04;22.40;84.80
19561;DHT22;9927;47.792;10.616;2022-08-21T17:31:36;22.40;85.20
19561;DHT22;9927;47.792;10.616;2022-08-21T17:34:05;22.30;85.60
19561;DHT22;9927;47.792;10.616;2022-08-21T17:36:33;22.20;85.70
19561;DHT22;9927;47.792;10.616;2022-08-21T17:39:00;22.20;86.30
19561;DHT22;9927;47.792;10.616;2022-08-21T17:41:28;22.10;86.60
19561;DHT22;9927;47.792;10.616;2022-08-21T17:43:55;22.00;86.10
19561;DHT22;9927;47.792;10.616;2022-08-21T17:46:26;21.90;86.60
19561;DHT22;9927;47.792;10.616;2022-08-21T17:48:54;21.90;88.30
19561;DHT22;9927;47.792;10.616;2022-08-21T17:51:22;21.80;89.10
19561;DHT22;9927;47.792;10.616;2022-08-21T17:53:50;21.70;88.20
19561;DHT22;9927;47.792;10.616;2022-08-21T17:56:18;21.70;88.60
19561;DHT22;9927;47.792;10.616;2022-08-21T17:58:49;21.70;88.50
19561;DHT22;9927;47.792;10.616;2022-08-21T18:01:18;21.60;88.60
19561;DHT22;9927;47.792;10.616;2022-08-21T18:03:47;21.50;89.40
19561;DHT22;9927;47.792;10.616;2022-08-21T18:06:15;21.40;90.40
19561;DHT22;9927;47.792;10.616;2022-08-21T18:08:44;21.20;91.10
19561;DHT22;9927;47.792;10.616;2022-08-21T18:11:14;21.10;91.80
19561;DHT22;9927;47.792;10.616;2022-08-21T18:13:51;21.00;92.10
19561;DHT22;9927;47.792;10.616;2022-08-21T18:16:19;20.90;92.60
19561;DHT22;9927;47.792;10.616;2022-08-21T18:18:46;20.70;93.00
19561;DHT22;9927;47.792;10.616;2022-08-21T18:21:15;20.70;93.30
19561;DHT22;9927;47.792;10.616;2022-08-21T18:23:43;20.50;93.60
19561;DHT22;9927;47.792;10.616;2022-08-21T18:26:13;20.40;93.90
19561;DHT22;9927;47.792;10.616;2022-08-21T18:28:41;20.30;94.10
19561;DHT22;9927;47.792;10.616;2022-08-21T18:31:11;20.20;94.40
19561;DHT22;9927;47.792;10.616;2022-08-21T18:33:39;20.20;94.90
19561;DHT22;9927;47.792;10.616;2022-08-21T18:36:26;20.10;95.00
19561;DHT22;9927;47.792;10.616;2022-08-21T18:38:56;19.90;95.90
19561;DHT22;9927;47.792;10.616;2022-08-21T18:41:45;19.90;96.30
19561;DHT22;9927;47.792;10.616;2022-08-21T18:44:14;19.80;96.60
19561;DHT22;9927;47.792;10.616;2022-08-21T18:46:47;19.70;97.10
19561;DHT22;9927;47.792;10.616;2022-08-21T18:49:16;19.60;97.50
19561;DHT22;9927;47.792;10.616;2022-08-21T18:51:44;19.60;98.00
19561;DHT22;9927;47.792;10.616;2022-08-21T18:54:13;19.50;98.40
19561;DHT22;9927;47.792;10.616;2022-08-21T18:56:41;19.40;98.80
19561;DHT22;9927;47.792;10.616;2022-08-21T18:59:10;19.30;99.70
19561;DHT22;9927;47.792;10.616;2022-08-21T19:01:39;19.30;99.90
19561;DHT22;9927;47.792;10.616;2022-08-21T19:04:08;19.10;99.90
19561;DHT22;9927;47.792;10.616;2022-08-21T19:06:51;19.10;99.90
19561;DHT22;9927;47.792;10.616;2022-08-21T19:09:19;19.00;99.90
19561;DHT22;9927;47.792;10.616;2022-08-21T19:11:48;18.90;99.90
19561;DHT22;9927;47.792;10.616;2022-08-21T19:14:17;18.90;99.90
19561;DHT22;9927;47.792;10.616;2022-08-21T19:16:48;18.80;99.90
19561;DHT22;9927;47.792;10.616;2022-08-21T19:19:16;18.70;99.90
19561;DHT22;9927;47.792;10.616;2022-08-21T19:21:44;18.70;99.90
19561;DHT22;9927;47.792;10.616;2022-08-21T19:24:16;18.60;99.90
19561;DHT22;9927;47.792;10.616;2022-08-21T19:26:49;18.50;99.90
19561;DHT22;9927;47.792;10.616;2022-08-21T19:29:22;18.40;99.90
19561;DHT22;9927;47.792;10.616;2022-08-21T19:32:05;18.30;99.90
19561;DHT22;9927;47.792;10.616;2022-08-21T19:34:34;18.20;99.90
19561;DHT22;9927;47.792;10.616;2022-08-21T19:37:03;18.20;99.90
19561;DHT22;9927;47.792;10.616;2022-08-21T19:39:32;18.10;99.90
19561;DHT22;9927;47.792;10.616;2022-08-21T19:42:09;18.00;99.90
19561;DHT22;9927;47.792;10.616;2022-08-21T19:44:37;18.00;99.90
19561;DHT22;9927;47.792;10.616;2022-08-21T19:47:11;18.00;99.90
19561;DHT22;9927;47.792;10.616;2022-08-21T19:49:51;17.90;99.90
19561;DHT22;9927;47.792;10.616;2022-08-21T19:52:19;17.90;99.90
19561;DHT22;9927;47.792;10.616;2022-08-21T19:54:48;17.80;99.90
19561;DHT22;9927;47.792;10.616;2022-08-21T19:57:15;17.80;99.90
19561;DHT22;9927;47.792;10.616;2022-08-21T19:59:43;17.70;99.90
19561;DHT22;9927;47.792;10.616;2022-08-21T20:02:13;17.60;99.90
19561;DHT22;9927;47.792;10.616;2022-08-21T20:04:40;17.50;99.90
19561;DHT22;9927;47.792;10.616;2022-08-21T20:07:20;17.40;99.90
19561;DHT22;9927;47.792;10.616;2022-08-21T20:09:53;17.30;99.90
19561;DHT22;9927;47.792;10.616;2022-08-21T20:12:23;17.30;99.90
19561;DHT22;9927;47.792;10.616;2022-08-21T20:14:50;17.20;99.90
19561;DHT22;9927;47.792;10.616;2022-08-21T20:17:18;17.10;99.90
19561;DHT22;9927;47.792;10.616;2022-08-21T20:19:47;17.00;99.90
19561;DHT22;9927;47.792;10.616;2022-08-21T20:22:20;16.90;99.90
19561;DHT22;9927;47.792;10.616;2022-08-21T20:24:50;16.80;99.90
19561;DHT22;9927;47.792;10.616;2022-08-21T20:27:23;16.80;99.90
19561;DHT22;9927;47.792;10.616;2022-08-21T20:29:51;16.80;99.90
19561;DHT22;9927;47.792;10.616;2022-08-21T20:32:18;16.80;99.90
19561;DHT22;9927;47.792;10.616;2022-08-21T20:34:49;16.70;99.90